createdAt,value
2022-10-02T00:02:16.960Z,1.50
2022-10-02T00:04:59.286Z,1.77
2022-10-02T00:07:43.180Z,1.70
2022-10-02T00:10:19.690Z,2.00
2022-10-02T00:12:50.198Z,1.40
2022-10-02T00:15:22.256Z,1.83
2022-10-02T00:17:52.878Z,1.15
2022-10-02T00:20:26.624Z,1.58
2022-10-02T00:22:55.776Z,1.42
2022-10-02T00:25:43.276Z,1.77
2022-10-02T00:28:28.925Z,1.40
2022-10-02T00:31:28.593Z,1.30
2022-10-02T00:34:14.332Z,1.50
2022-10-02T00:37:03.665Z,1.83
2022-10-02T00:39:51.381Z,2.00
2022-10-02T00:42:29.930Z,1.70
2022-10-02T00:45:15.151Z,1.60
2022-10-02T00:47:47.688Z,1.80
2022-10-02T00:50:33.767Z,1.63
2022-10-02T00:53:45.331Z,1.92
2022-10-02T00:56:24.264Z,1.70
2022-10-02T00:59:08.668Z,1.70
2022-10-02T01:02:04.109Z,2.10
2022-10-02T01:04:34.201Z,1.85
2022-10-02T01:07:02.254Z,2.00
2022-10-02T01:09:29.158Z,1.80
2022-10-02T01:11:56.006Z,1.92
2022-10-02T01:14:32.704Z,1.75
2022-10-02T01:16:59.408Z,2.00
2022-10-02T01:19:35.919Z,2.22
2022-10-02T01:22:15.856Z,1.90
2022-10-02T01:24:55.756Z,1.70
2022-10-02T01:27:23.653Z,1.83
2022-10-02T01:30:04.126Z,2.03
2022-10-02T01:32:31.973Z,2.20
2022-10-02T01:35:00.792Z,1.92
2022-10-02T01:37:32.759Z,1.80
2022-10-02T01:40:04.948Z,1.58
2022-10-02T01:42:32.085Z,1.70
2022-10-02T01:44:58.833Z,1.67
2022-10-02T01:47:39.533Z,1.90
2022-10-02T01:50:17.142Z,2.10
2022-10-02T01:52:55.319Z,2.10
2022-10-02T01:55:37.320Z,2.42
2022-10-02T01:58:03.713Z,2.08
2022-10-02T02:00:48.738Z,2.22
2022-10-02T02:03:35.454Z,2.17
2022-10-02T02:06:12.346Z,2.08
2022-10-02T02:08:41.872Z,2.13
2022-10-02T02:11:15.949Z,2.15
2022-10-02T02:13:47.689Z,2.45
2022-10-02T02:16:29.429Z,2.67
2022-10-02T02:19:38.012Z,2.28
2022-10-02T02:22:21.524Z,2.60
2022-10-02T02:24:56.350Z,2.95
2022-10-02T02:27:27.906Z,2.70
2022-10-02T02:30:01.591Z,2.90
2022-10-02T02:32:33.983Z,2.60
2022-10-02T02:35:12.324Z,2.80
2022-10-02T02:37:42.604Z,2.70
2022-10-02T02:40:15.312Z,2.75
2022-10-02T02:42:47.835Z,2.80
2022-10-02T02:45:24.125Z,3.05
2022-10-02T02:47:57.494Z,3.15
2022-10-02T02:50:26.738Z,2.92
2022-10-02T02:53:05.857Z,3.03
2022-10-02T02:55:42.772Z,3.00
2022-10-02T02:58:19.319Z,3.00
2022-10-02T03:00:46.030Z,2.75
2022-10-02T03:03:13.295Z,2.75
2022-10-02T03:05:47.982Z,2.53
2022-10-02T03:08:26.943Z,2.38
2022-10-02T03:11:14.683Z,2.55
2022-10-02T03:14:11.851Z,2.83
2022-10-02T03:16:42.513Z,3.00
2022-10-02T03:19:30.545Z,2.33
2022-10-02T03:22:20.455Z,2.50
2022-10-02T03:24:49.736Z,2.47
2022-10-02T03:27:27.710Z,2.20
2022-10-02T03:30:04.282Z,2.25
2022-10-02T03:32:33.091Z,2.22
2022-10-02T03:35:00.735Z,2.03
2022-10-02T03:37:28.426Z,2.17
2022-10-02T03:40:00.231Z,2.35
2022-10-02T03:42:30.643Z,2.15
2022-10-02T03:44:57.099Z,2.22
2022-10-02T03:47:23.655Z,2.20
2022-10-02T03:49:50.288Z,2.42
2022-10-02T03:52:19.809Z,2.03
2022-10-02T03:54:46.704Z,2.15
2022-10-02T03:57:22.076Z,2.00
2022-10-02T04:00:05.671Z,1.80
2022-10-02T04:02:58.033Z,1.80
2022-10-02T04:05:39.121Z,1.85
2022-10-02T04:08:16.648Z,2.00
2022-10-02T04:11:11.122Z,1.83
2022-10-02T04:13:49.769Z,1.90
2022-10-02T04:16:38.094Z,1.88
2022-10-02T04:19:18.704Z,2.20
2022-10-02T04:24:15.271Z,1.92
2022-10-02T04:26:47.515Z,1.88
2022-10-02T04:29:28.377Z,2.15
2022-10-02T04:32:07.766Z,2.20
2022-10-02T04:34:34.181Z,1.83
2022-10-02T04:37:11.245Z,2.50
2022-10-02T04:40:16.776Z,2.30
2022-10-02T04:42:49.141Z,1.90
2022-10-02T04:45:31.836Z,2.08
2022-10-02T04:48:12.318Z,2.17
2022-10-02T04:53:35.693Z,2.10
2022-10-02T04:56:19.985Z,2.33
2022-10-02T04:58:52.488Z,1.88
2022-10-02T05:01:28.780Z,2.05
2022-10-02T05:04:19.612Z,2.25
2022-10-02T05:07:03.557Z,1.90
2022-10-02T05:09:37.485Z,1.80
2022-10-02T05:12:09.788Z,2.45
2022-10-02T05:15:12.757Z,1.88
2022-10-02T05:17:39.092Z,1.90
2022-10-02T05:20:21.855Z,2.25
2022-10-02T05:23:12.681Z,2.20
2022-10-02T05:26:09.605Z,1.90
2022-10-02T05:29:02.952Z,2.28
2022-10-02T05:31:58.830Z,2.10
2022-10-02T05:34:43.700Z,2.15
2022-10-02T05:37:31.598Z,1.65
2022-10-02T05:40:10.537Z,1.75
2022-10-02T05:42:43.390Z,1.60
2022-10-02T05:45:26.417Z,1.77
2022-10-02T05:48:02.660Z,2.00
2022-10-02T05:50:34.346Z,2.20
2022-10-02T05:53:10.747Z,2.13
2022-10-02T05:55:45.799Z,1.95
2022-10-02T05:58:30.405Z,2.03
2022-10-02T06:01:17.919Z,2.20
2022-10-02T06:03:55.895Z,1.75
2022-10-02T06:06:39.152Z,1.67
2022-10-02T06:09:20.135Z,1.50
2022-10-02T06:12:19.148Z,1.55
2022-10-02T06:17:27.426Z,1.40
2022-10-02T06:20:14.307Z,1.63
2022-10-02T06:22:48.139Z,1.55
2022-10-02T06:25:25.696Z,1.63
2022-10-02T06:28:06.188Z,1.70
2022-10-02T06:30:37.327Z,2.05
2022-10-02T06:33:15.651Z,1.75
2022-10-02T06:36:20.245Z,2.20
2022-10-02T06:38:58.457Z,1.70
2022-10-02T06:41:38.457Z,2.03
2022-10-02T06:44:27.639Z,1.83
2022-10-02T06:47:47.638Z,2.00
2022-10-02T06:50:33.312Z,1.90
2022-10-02T06:53:05.747Z,2.03
2022-10-02T06:55:32.143Z,2.20
2022-10-02T06:58:04.281Z,2.00
2022-10-02T07:00:37.354Z,2.15
2022-10-02T07:03:42.153Z,2.33
2022-10-02T07:06:21.894Z,2.17
2022-10-02T07:09:03.317Z,2.05
2022-10-02T07:11:43.091Z,2.05
2022-10-02T07:14:27.988Z,2.08
2022-10-02T07:17:21.538Z,2.10
2022-10-02T07:20:16.349Z,2.28
2022-10-02T07:23:13.550Z,2.10
2022-10-02T07:25:45.847Z,2.13
2022-10-02T07:28:15.502Z,2.17
2022-10-02T07:31:06.168Z,2.00
2022-10-02T07:33:50.596Z,2.08
2022-10-02T07:36:30.286Z,1.90
2022-10-02T07:39:01.912Z,1.73
2022-10-02T07:41:56.431Z,2.25
2022-10-02T07:44:46.204Z,2.00
2022-10-02T07:47:34.857Z,2.20
2022-10-02T07:50:33.083Z,2.20
2022-10-02T07:53:15.245Z,1.95
2022-10-02T07:55:43.568Z,2.20
2022-10-02T07:58:37.023Z,2.25
2022-10-02T08:01:09.435Z,2.20
2022-10-02T08:03:43.384Z,3.13
2022-10-02T08:06:10.370Z,2.45
2022-10-02T08:08:39.267Z,2.42
2022-10-02T08:11:31.389Z,2.45
2022-10-02T08:14:28.793Z,1.90
2022-10-02T08:17:01.656Z,2.30
2022-10-02T08:19:39.462Z,1.85
2022-10-02T08:22:33.794Z,2.20
2022-10-02T08:25:08.031Z,1.75
2022-10-02T08:28:04.680Z,1.75
2022-10-02T08:30:31.214Z,2.08
2022-10-02T08:32:58.657Z,2.05
2022-10-02T08:35:43.297Z,1.55
2022-10-02T08:38:15.751Z,1.88
2022-10-02T08:41:09.564Z,2.00
2022-10-02T08:44:43.924Z,2.08
2022-10-02T08:47:43.907Z,2.05
2022-10-02T08:50:20.204Z,1.77
2022-10-02T08:53:25.906Z,1.95
2022-10-02T08:56:26.347Z,1.92
2022-10-02T08:59:23.879Z,2.00
2022-10-02T09:02:11.962Z,1.90
2022-10-02T09:05:17.144Z,1.45
2022-10-02T09:08:08.952Z,2.05
2022-10-02T09:10:53.584Z,1.98
2022-10-02T09:13:54.190Z,1.67
2022-10-02T09:16:33.318Z,1.70
2022-10-02T09:19:21.321Z,2.22
2022-10-02T09:21:56.096Z,1.67
2022-10-02T09:24:52.657Z,2.03
2022-10-02T09:27:37.269Z,1.40
2022-10-02T09:30:13.540Z,1.90
2022-10-02T09:33:07.762Z,1.38
2022-10-02T09:35:54.635Z,1.30
2022-10-02T09:38:44.762Z,1.77
2022-10-02T09:41:34.208Z,1.58
2022-10-02T09:44:19.639Z,1.60
2022-10-02T09:46:52.834Z,1.60
2022-10-02T09:49:57.506Z,1.73
2022-10-02T09:55:14.719Z,1.30
2022-10-02T09:57:41.164Z,1.50
2022-10-02T10:00:31.848Z,1.73
2022-10-02T10:03:16.570Z,1.92
2022-10-02T10:05:45.958Z,1.40
2022-10-02T10:08:38.656Z,1.48
2022-10-02T10:11:16.212Z,1.90
2022-10-02T10:14:07.079Z,1.40
2022-10-02T10:16:51.803Z,1.40
2022-10-02T10:19:33.180Z,1.75
2022-10-02T10:22:23.969Z,1.35
2022-10-02T10:25:10.622Z,1.40
2022-10-02T10:27:40.200Z,1.40
2022-10-02T10:30:15.959Z,1.88
2022-10-02T10:33:16.838Z,1.55
2022-10-02T10:35:56.535Z,1.60
2022-10-02T10:39:03.641Z,1.30
2022-10-02T10:42:08.872Z,1.17
2022-10-02T10:45:03.876Z,1.30
2022-10-02T10:48:08.288Z,1.48
2022-10-02T10:50:53.904Z,2.95
2022-10-02T10:53:46.118Z,1.50
2022-10-02T10:56:26.012Z,1.45
2022-10-02T10:59:25.294Z,1.55
2022-10-02T11:02:16.668Z,1.30
2022-10-02T11:05:08.578Z,1.63
2022-10-02T11:07:40.676Z,1.38
2022-10-02T11:10:16.033Z,1.30
2022-10-02T11:13:03.055Z,1.52
2022-10-02T11:15:48.067Z,1.50
2022-10-02T11:18:20.261Z,1.40
2022-10-02T11:21:15.492Z,1.50
2022-10-02T11:23:47.648Z,1.67
2022-10-02T11:26:17.738Z,1.70
2022-10-02T11:28:54.163Z,1.25
2022-10-02T11:31:50.663Z,1.48
2022-10-02T11:34:43.811Z,1.60
2022-10-02T11:37:23.238Z,1.40
2022-10-02T11:40:08.081Z,1.40
2022-10-02T11:42:57.306Z,1.35
2022-10-02T11:46:00.118Z,1.60
2022-10-02T11:48:35.769Z,1.50
2022-10-02T11:51:36.754Z,1.70
2022-10-02T11:54:21.747Z,1.80
2022-10-02T11:57:09.378Z,1.60
2022-10-02T11:59:54.108Z,1.60
2022-10-02T12:02:38.840Z,1.48
2022-10-02T12:05:30.393Z,1.75
2022-10-02T12:08:46.734Z,1.80
2022-10-02T12:11:53.857Z,1.75
2022-10-02T12:14:39.015Z,1.88
2022-10-02T12:17:28.282Z,1.48
2022-10-02T12:20:32.094Z,1.40
2022-10-02T12:23:35.768Z,1.35
2022-10-02T12:26:59.932Z,1.40
2022-10-02T12:29:50.921Z,1.30
2022-10-02T12:32:54.975Z,1.02
2022-10-02T12:35:27.663Z,0.98
2022-10-02T12:38:05.300Z,1.35
2022-10-02T12:40:46.740Z,1.08
2022-10-02T12:44:02.216Z,1.35
2022-10-02T12:46:49.955Z,1.52
2022-10-02T12:49:50.693Z,1.30
2022-10-02T12:52:44.790Z,1.30
2022-10-02T12:55:48.884Z,1.63
2022-10-02T12:58:42.536Z,1.10
2022-10-02T13:01:31.484Z,1.30
2022-10-02T13:04:16.483Z,1.40
2022-10-02T13:06:48.718Z,1.20
2022-10-02T13:09:18.043Z,1.48
2022-10-02T13:12:06.197Z,1.30
2022-10-02T13:14:45.629Z,1.27
2022-10-02T13:17:19.856Z,1.30
2022-10-02T13:20:01.034Z,1.30
2022-10-02T13:22:52.856Z,1.25
2022-10-02T13:25:38.065Z,1.42
2022-10-02T13:28:13.668Z,1.50
2022-10-02T13:31:15.847Z,1.40
2022-10-02T13:34:26.758Z,1.50
2022-10-02T13:37:15.629Z,1.15
2022-10-02T13:39:53.266Z,1.40
2022-10-02T13:42:38.295Z,1.10
2022-10-02T13:45:07.600Z,1.75
2022-10-02T13:47:44.099Z,1.70
2022-10-02T13:50:17.820Z,1.38
2022-10-02T13:52:56.604Z,1.60
2022-10-02T13:55:26.656Z,1.40
2022-10-02T13:58:06.058Z,1.40
2022-10-02T14:00:38.473Z,1.42
2022-10-02T14:03:25.998Z,1.30
2022-10-02T14:06:02.085Z,1.33
2022-10-02T14:08:31.616Z,1.45
2022-10-02T14:11:23.818Z,1.20
2022-10-02T14:14:11.587Z,1.23
2022-10-02T14:16:44.503Z,1.20
2022-10-02T14:19:52.669Z,1.40
2022-10-02T14:22:34.048Z,1.40
2022-10-02T14:25:22.793Z,1.40
2022-10-02T14:27:58.436Z,1.58
2022-10-02T14:30:46.048Z,1.23
2022-10-02T14:33:27.696Z,1.58
2022-10-02T14:36:08.910Z,1.48
2022-10-02T14:38:51.171Z,2.25
2022-10-02T14:41:20.668Z,1.90
2022-10-02T14:44:18.053Z,1.58
2022-10-02T14:47:21.784Z,1.48
2022-10-02T14:49:54.727Z,1.30
2022-10-02T14:52:30.294Z,1.60
2022-10-02T14:55:15.722Z,1.60
2022-10-02T14:57:51.120Z,1.38
2022-10-02T15:00:25.489Z,1.20
2022-10-02T15:02:51.957Z,1.67
2022-10-02T15:05:45.313Z,1.58
2022-10-02T15:08:21.238Z,1.73
2022-10-02T15:10:49.213Z,2.17
2022-10-02T15:16:52.901Z,2.55
2022-10-02T15:19:25.561Z,2.00
2022-10-02T15:22:01.962Z,1.48
2022-10-02T15:24:44.464Z,1.88
2022-10-02T15:27:23.081Z,1.38
2022-10-02T15:29:58.657Z,1.50
2022-10-02T15:32:46.341Z,1.10
2022-10-02T15:35:27.463Z,1.27
2022-10-02T15:38:31.749Z,1.83
2022-10-02T15:41:19.547Z,2.05
2022-10-02T15:43:48.890Z,1.83
2022-10-02T15:46:43.189Z,1.23
2022-10-02T15:49:39.627Z,1.40
2022-10-02T15:52:36.600Z,1.90
2022-10-02T15:55:19.773Z,1.35
2022-10-02T15:58:16.328Z,1.40
2022-10-02T16:01:01.122Z,1.20
2022-10-02T16:03:50.809Z,1.40
2022-10-02T16:06:35.661Z,3.20
2022-10-02T16:09:28.503Z,1.48
2022-10-02T16:12:31.514Z,2.20
2022-10-02T16:15:18.154Z,1.80
2022-10-02T16:17:56.803Z,1.90
2022-10-02T16:20:38.289Z,1.55
2022-10-02T16:23:46.421Z,1.65
2022-10-02T16:26:50.561Z,1.90
2022-10-02T16:29:29.104Z,2.10
2022-10-02T16:32:19.580Z,1.50
2022-10-02T16:35:16.592Z,1.85
2022-10-02T16:38:00.073Z,1.90
2022-10-02T16:40:56.837Z,3.85
2022-10-02T16:43:48.544Z,2.25
2022-10-02T16:47:07.609Z,2.60
2022-10-02T16:50:02.152Z,1.70
2022-10-02T16:52:34.728Z,1.35
2022-10-02T16:55:23.510Z,1.40
2022-10-02T16:58:05.096Z,1.40
2022-10-02T17:00:38.010Z,1.23
2022-10-02T17:03:28.979Z,1.63
2022-10-02T17:06:04.082Z,1.65
2022-10-02T17:08:44.155Z,1.45
2022-10-02T17:11:16.685Z,1.60
2022-10-02T17:13:49.792Z,1.80
2022-10-02T17:16:37.521Z,1.52
2022-10-02T17:19:19.065Z,2.47
2022-10-02T17:21:53.667Z,10.88
2022-10-02T17:24:23.083Z,9.20
2022-10-02T17:27:13.451Z,9.43
2022-10-02T17:30:05.158Z,4.72
2022-10-02T17:32:34.506Z,2.80
2022-10-02T17:35:01.160Z,3.00
2022-10-02T17:37:56.966Z,2.17
2022-10-02T17:40:46.334Z,2.10
2022-10-02T17:43:18.333Z,1.92
2022-10-02T17:45:52.256Z,1.98
2022-10-02T17:48:30.642Z,2.40
2022-10-02T17:51:38.546Z,1.95
2022-10-02T17:54:23.634Z,2.13
2022-10-02T17:57:33.713Z,1.92
2022-10-02T18:00:12.143Z,2.10
2022-10-02T18:02:44.883Z,2.17
2022-10-02T18:05:38.246Z,1.90
2022-10-02T18:08:10.573Z,2.05
2022-10-02T18:10:58.462Z,2.45
2022-10-02T18:14:01.929Z,2.90
2022-10-02T18:16:33.282Z,2.70
2022-10-02T18:19:21.925Z,3.03
2022-10-02T18:22:23.571Z,3.35
2022-10-02T18:25:29.724Z,3.80
2022-10-02T18:28:19.317Z,3.47
2022-10-02T18:30:54.615Z,3.20
2022-10-02T18:33:51.147Z,3.25
2022-10-02T18:36:37.192Z,3.00
2022-10-02T18:39:19.209Z,3.58
2022-10-02T18:41:48.589Z,3.30
2022-10-02T18:44:29.468Z,3.05
2022-10-02T18:47:04.337Z,3.13
2022-10-02T18:49:52.360Z,2.65
2022-10-02T18:52:38.464Z,3.03
2022-10-02T18:55:17.163Z,3.40
2022-10-02T18:57:55.985Z,3.50
2022-10-02T19:00:26.032Z,3.72
2022-10-02T19:02:55.468Z,3.45
2022-10-02T19:05:28.068Z,3.22
2022-10-02T19:08:03.583Z,3.67
2022-10-02T19:10:33.002Z,4.38
2022-10-02T19:13:17.571Z,4.65
2022-10-02T19:15:46.827Z,4.00
2022-10-02T19:18:29.780Z,4.68
2022-10-02T19:21:12.246Z,4.72
2022-10-02T19:23:47.534Z,4.43
2022-10-02T19:26:21.438Z,5.25
2022-10-02T19:28:52.234Z,6.25
2022-10-02T19:31:21.970Z,5.65
2022-10-02T19:34:03.366Z,6.22
2022-10-02T19:36:38.240Z,6.90
2022-10-02T19:39:10.284Z,7.53
2022-10-02T19:41:42.862Z,7.22
2022-10-02T19:44:22.739Z,6.95
2022-10-02T19:46:52.902Z,6.40
2022-10-02T19:49:34.144Z,6.18
2022-10-02T19:52:00.746Z,6.18
2022-10-02T19:54:35.586Z,6.35
2022-10-02T19:57:12.351Z,6.10
2022-10-02T19:59:44.293Z,5.85
2022-10-02T20:02:21.778Z,5.97
2022-10-02T20:04:50.920Z,4.35
2022-10-02T20:07:20.807Z,4.03
2022-10-02T20:09:55.994Z,4.22
2022-10-02T20:12:29.390Z,4.20
2022-10-02T20:15:15.585Z,4.95
2022-10-02T20:17:42.441Z,4.20
2022-10-02T20:20:16.653Z,4.65
2022-10-02T20:22:55.056Z,4.90
2022-10-02T20:25:28.996Z,5.05
2022-10-02T20:28:06.253Z,4.55
2022-10-02T20:30:41.631Z,4.85
2022-10-02T20:33:31.728Z,4.53
2022-10-02T20:36:06.763Z,4.28
2022-10-02T20:38:44.448Z,4.88
2022-10-02T20:41:21.572Z,4.90
2022-10-02T20:43:51.292Z,5.43
2022-10-02T20:46:47.324Z,4.57
2022-10-02T20:49:33.946Z,4.70
2022-10-02T20:52:22.109Z,4.28
2022-10-02T20:54:58.098Z,4.07
2022-10-02T20:58:02.196Z,4.28
2022-10-02T21:00:43.026Z,4.20
2022-10-02T21:03:30.959Z,4.70
2022-10-02T21:06:24.351Z,4.32
2022-10-02T21:09:02.608Z,4.63
2022-10-02T21:11:35.694Z,4.50
2022-10-02T21:14:34.023Z,4.38
2022-10-02T21:17:18.606Z,3.92
2022-10-02T21:20:03.038Z,5.00
2022-10-02T21:22:59.029Z,4.53
2022-10-02T21:25:32.206Z,4.95
2022-10-02T21:28:17.737Z,5.25
2022-10-02T21:31:18.804Z,4.95
2022-10-02T21:34:03.575Z,4.55
2022-10-02T21:36:45.310Z,4.75
2022-10-02T21:39:30.437Z,4.80
2022-10-02T21:42:35.513Z,4.82
2022-10-02T21:45:23.859Z,5.03
2022-10-02T21:48:09.027Z,4.97
2022-10-02T21:51:01.743Z,5.13
2022-10-02T21:53:58.676Z,5.32
2022-10-02T21:56:57.401Z,5.35
2022-10-02T21:59:58.417Z,5.50
2022-10-02T22:02:37.200Z,5.90
2022-10-02T22:05:29.402Z,6.20
2022-10-02T22:08:08.121Z,5.30
2022-10-02T22:10:47.628Z,4.50
2022-10-02T22:13:24.025Z,4.80
2022-10-02T22:16:04.157Z,4.70
2022-10-02T22:18:44.364Z,4.47
2022-10-02T22:21:48.790Z,4.25
2022-10-02T22:24:18.171Z,3.83
2022-10-02T22:26:44.652Z,3.95
2022-10-02T22:29:27.776Z,3.65
2022-10-02T22:32:34.857Z,3.35
2022-10-02T22:35:21.098Z,3.58
2022-10-02T22:38:35.701Z,3.33
2022-10-02T22:41:14.651Z,3.05
2022-10-02T22:44:13.545Z,2.70
2022-10-02T22:49:34.098Z,3.00
2022-10-02T22:52:07.802Z,3.03
2022-10-02T22:54:40.214Z,3.20
2022-10-02T22:57:33.260Z,2.80
2022-10-02T23:00:15.535Z,2.95
2022-10-02T23:03:01.864Z,2.92
2022-10-02T23:05:35.093Z,2.50
2022-10-02T23:08:30.860Z,2.80
2022-10-02T23:11:07.043Z,2.70
2022-10-02T23:13:40.651Z,2.45
2022-10-02T23:16:16.729Z,2.90
2022-10-02T23:18:52.069Z,2.80
2022-10-02T23:21:25.128Z,3.10
2022-10-02T23:24:02.489Z,2.60
2022-10-02T23:26:34.723Z,2.80
2022-10-02T23:29:30.586Z,2.90
2022-10-02T23:32:42.100Z,2.55
2022-10-02T23:35:28.201Z,2.58
2022-10-02T23:38:27.060Z,2.20
2022-10-02T23:41:22.806Z,2.22
2022-10-02T23:43:51.853Z,2.17
2022-10-02T23:46:25.940Z,2.60
2022-10-02T23:48:54.544Z,2.13
2022-10-02T23:51:37.280Z,2.20
2022-10-02T23:54:57.668Z,2.25
2022-10-02T23:57:29.786Z,2.20
